Time;durP1;ratioP1;P1;durP2;ratioP2;P2;SDS_P1;SDS_P2;PMS_P1;PMS_P2;Temp;Humidity;BMP_temperature;BMP_pressure;BME280_temperature;BME280_humidity;BME280_pressure;Samples;Min_cycle;Max_cycle;Signal;HPM_P1;HPM_P2
2022/03/05 00:02:22;;;;;;;5.18;2.90;;;6.00;83.00;;;;;;5134496;27;20062;-73
2022/03/05 00:04:47;;;;;;;5.70;2.78;;;6.00;82.90;;;;;;5115548;27;20027;-73
2022/03/05 00:07:13;;;;;;;4.05;2.60;;;6.00;83.30;;;;;;5134015;27;20076;-73
2022/03/05 00:09:39;;;;;;;5.07;2.28;;;6.00;83.10;;;;;;5134178;27;20030;-73
2022/03/05 00:12:04;;;;;;;3.63;2.30;;;6.00;83.50;;;;;;5134747;27;20482;-73
2022/03/05 00:14:30;;;;;;;3.47;2.40;;;5.90;83.60;;;;;;5133300;27;20070;-73
2022/03/05 00:16:56;;;;;;;5.55;2.45;;;5.90;83.50;;;;;;5133611;27;20023;-73
2022/03/05 00:19:21;;;;;;;4.82;2.58;;;5.90;83.80;;;;;;5133622;27;20048;-73
2022/03/05 00:21:47;;;;;;;4.82;2.45;;;5.90;83.70;;;;;;5133784;27;20394;-73
2022/03/05 00:24:13;;;;;;;5.63;2.88;;;5.90;84.50;;;;;;5115129;27;20103;-73
2022/03/05 00:26:38;;;;;;;6.00;2.83;;;5.90;83.40;;;;;;5135810;27;20054;-73
2022/03/05 00:29:04;;;;;;;4.00;2.65;;;5.90;83.40;;;;;;5114388;27;20046;-73
2022/03/05 00:31:30;;;;;;;5.25;2.25;;;5.90;83.70;;;;;;5133472;27;20111;-73
2022/03/05 00:33:56;;;;;;;5.75;3.10;;;5.90;83.50;;;;;;5133455;27;20057;-74
2022/03/05 00:36:21;;;;;;;3.22;2.35;;;5.80;83.70;;;;;;5132315;27;20038;-73
2022/03/05 00:38:47;;;;;;;4.80;2.90;;;5.80;83.70;;;;;;5116594;27;20023;-73
2022/03/05 00:41:12;;;;;;;5.50;2.65;;;5.90;84.10;;;;;;5133294;27;20023;-73
2022/03/05 00:43:38;;;;;;;8.70;2.83;;;5.90;84.40;;;;;;5132722;27;20023;-73
2022/03/05 00:46:04;;;;;;;5.75;3.20;;;5.80;84.40;;;;;;5133210;27;20058;-74
2022/03/05 00:48:29;;;;;;;5.82;3.25;;;5.80;84.90;;;;;;5131356;27;20540;-75
2022/03/05 00:50:55;;;;;;;6.93;2.53;;;5.80;84.50;;;;;;5120046;27;20031;-74
2022/03/05 00:53:21;;;;;;;7.60;2.95;;;5.80;84.60;;;;;;5133065;27;20500;-75
2022/03/05 00:55:47;;;;;;;6.47;2.75;;;5.80;84.90;;;;;;5132715;27;20463;-75
2022/03/05 00:58:14;;;;;;;6.65;2.95;;;5.80;85.10;;;;;;5132591;27;20170;-74
2022/03/05 01:00:41;;;;;;;4.47;2.22;;;5.70;84.80;;;;;;5132572;27;20563;-74
2022/03/05 01:03:07;;;;;;;5.50;2.63;;;5.70;84.90;;;;;;5133641;27;20099;-75
2022/03/05 01:05:32;;;;;;;5.78;2.55;;;5.70;85.20;;;;;;5134128;27;20047;-74
2022/03/05 01:07:58;;;;;;;3.50;2.40;;;5.70;85.20;;;;;;5132725;27;20062;-74
2022/03/05 01:10:24;;;;;;;5.07;2.60;;;5.70;84.80;;;;;;5132720;27;20026;-74
2022/03/05 01:12:49;;;;;;;5.45;2.80;;;5.70;84.80;;;;;;5132340;27;20015;-75
2022/03/05 01:15:15;;;;;;;4.15;2.33;;;5.70;85.10;;;;;;5132728;27;20485;-75
2022/03/05 01:17:41;;;;;;;6.25;2.58;;;5.60;85.10;;;;;;5134674;27;20019;-75
2022/03/05 01:20:07;;;;;;;4.07;2.42;;;5.60;84.80;;;;;;5132319;27;20171;-75
2022/03/05 01:22:33;;;;;;;3.63;1.98;;;5.60;85.30;;;;;;5113944;27;20487;-74
2022/03/05 01:24:58;;;;;;;3.88;1.92;;;5.60;85.60;;;;;;5132426;27;20035;-75
2022/03/05 01:27:24;;;;;;;4.15;1.75;;;5.60;85.30;;;;;;5112452;28;20072;-75
2022/03/05 01:29:50;;;;;;;3.42;2.13;;;5.60;84.90;;;;;;5134323;27;20038;-74
2022/03/05 01:32:16;;;;;;;4.70;2.53;;;5.60;85.10;;;;;;5130884;27;20034;-74
2022/03/05 01:34:42;;;;;;;3.30;2.03;;;5.50;85.70;;;;;;5132277;27;20023;-74
2022/03/05 01:37:08;;;;;;;3.25;1.80;;;5.50;85.00;;;;;;5132153;27;20015;-74
2022/03/05 01:39:33;;;;;;;4.03;1.80;;;5.50;84.90;;;;;;5131450;27;20398;-74
2022/03/05 01:42:01;;;;;;;2.30;1.73;;;5.50;85.30;;;;;;5133210;27;20022;-74
2022/03/05 01:44:27;;;;;;;3.30;1.88;;;5.50;85.30;;;;;;5132732;27;20035;-74
2022/03/05 01:46:53;;;;;;;2.67;1.38;;;5.40;85.50;;;;;;5113602;27;20500;-74
2022/03/05 01:49:19;;;;;;;4.68;1.95;;;5.50;85.30;;;;;;5131792;27;20019;-75
2022/03/05 01:51:46;;;;;;;2.90;1.70;;;5.40;85.10;;;;;;5132032;27;20027;-74
2022/03/05 01:54:13;;;;;;;3.28;1.98;;;5.40;85.40;;;;;;5131740;27;20023;-75
2022/03/05 01:56:39;;;;;;;4.07;1.70;;;5.40;85.70;;;;;;5115408;27;20106;-75
2022/03/05 01:59:06;;;;;;;4.82;1.70;;;5.30;86.10;;;;;;5131691;27;20019;-75
2022/03/05 02:01:32;;;;;;;3.97;1.50;;;5.30;86.50;;;;;;5131638;27;20026;-74
2022/03/05 02:03:59;;;;;;;3.33;1.60;;;5.30;85.70;;;;;;5131689;27;20398;-74
2022/03/05 02:06:25;;;;;;;1.75;1.25;;;5.30;86.10;;;;;;5131736;27;20563;-74
2022/03/05 02:08:51;;;;;;;2.45;1.40;;;5.30;86.10;;;;;;5115178;27;20027;-74
2022/03/05 02:11:17;;;;;;;5.10;1.73;;;5.20;86.10;;;;;;5130155;27;20043;-74
2022/03/05 02:13:43;;;;;;;3.20;1.83;;;5.20;86.30;;;;;;5131404;27;20026;-74
2022/03/05 02:16:10;;;;;;;6.30;1.88;;;5.20;86.70;;;;;;5113000;27;20391;-74
2022/03/05 02:18:36;;;;;;;4.22;1.80;;;5.20;86.60;;;;;;5131607;27;20056;-74
2022/03/05 02:21:02;;;;;;;2.65;1.50;;;5.20;87.30;;;;;;5132503;27;20119;-75
2022/03/05 02:23:28;;;;;;;3.50;1.58;;;5.20;86.80;;;;;;5113754;27;20019;-74
2022/03/05 02:25:58;;;;;;;5.75;1.70;;;5.20;86.90;;;;;;5131322;27;20499;-74
2022/03/05 02:28:25;;;;;;;3.47;1.50;;;5.10;86.80;;;;;;5131117;27;20015;-74
2022/03/05 02:30:51;;;;;;;3.33;1.50;;;5.10;87.00;;;;;;5131435;27;20019;-74
2022/03/05 02:33:17;;;;;;;4.43;1.83;;;5.00;87.60;;;;;;5130374;27;20036;-75
2022/03/05 02:35:44;;;;;;;2.53;1.45;;;5.10;87.90;;;;;;5132016;27;20487;-75
2022/03/05 02:38:15;;;;;;;3.22;1.73;;;5.10;87.20;;;;;;5130875;27;20052;-75
2022/03/05 02:40:41;;;;;;;3.65;1.55;;;5.00;87.00;;;;;;5131003;27;20035;-74
2022/03/05 02:43:07;;;;;;;2.97;1.52;;;5.00;87.10;;;;;;5131183;27;20019;-75
2022/03/05 02:45:33;;;;;;;3.00;1.38;;;5.10;87.30;;;;;;5131115;27;20054;-74
2022/03/05 02:48:02;;;;;;;3.08;1.60;;;5.00;86.90;;;;;;5113943;28;20380;-74
2022/03/05 02:50:28;;;;;;;4.57;1.88;;;5.00;87.20;;;;;;5132332;27;20364;-74
2022/03/05 02:52:53;;;;;;;5.25;1.90;;;5.00;87.30;;;;;;5136759;27;20536;-74
2022/03/05 02:55:20;;;;;;;2.97;1.67;;;5.00;87.20;;;;;;5137817;27;20023;-74
2022/03/05 02:57:46;;;;;;;5.25;1.77;;;5.00;88.00;;;;;;5138048;27;20019;-74
2022/03/05 03:00:12;;;;;;;3.83;1.80;;;5.00;87.90;;;;;;5137440;27;20119;-74
2022/03/05 03:02:38;;;;;;;4.40;2.08;;;4.90;88.30;;;;;;5121439;27;20058;-74
2022/03/05 03:05:04;;;;;;;3.95;1.88;;;4.90;88.10;;;;;;5136604;27;20019;-74
2022/03/05 03:07:30;;;;;;;3.40;1.95;;;4.90;87.80;;;;;;5137271;27;20114;-74
2022/03/05 03:09:56;;;;;;;2.70;1.42;;;4.90;88.60;;;;;;5137261;27;20114;-74
2022/03/05 03:12:22;;;;;;;4.38;1.88;;;4.90;88.60;;;;;;5119942;27;20046;-74
2022/03/05 03:14:48;;;;;;;2.80;1.92;;;4.90;88.70;;;;;;5139084;27;20070;-74
2022/03/05 03:17:13;;;;;;;3.63;1.90;;;4.90;88.80;;;;;;5137108;27;20432;-74
2022/03/05 03:19:39;;;;;;;2.63;1.80;;;4.90;88.90;;;;;;5136880;27;20035;-74
2022/03/05 03:22:05;;;;;;;4.57;2.30;;;4.90;88.80;;;;;;5136334;27;20030;-75
2022/03/05 03:24:30;;;;;;;4.53;1.73;;;4.90;89.00;;;;;;5137155;27;20027;-74
2022/03/05 03:26:56;;;;;;;4.10;2.00;;;4.90;88.10;;;;;;5138988;27;20024;-74
2022/03/05 03:29:21;;;;;;;4.43;2.22;;;4.90;88.90;;;;;;5135996;27;20106;-75
2022/03/05 03:31:47;;;;;;;3.42;1.73;;;4.90;88.30;;;;;;5137339;27;20034;-75
2022/03/05 03:34:13;;;;;;;3.85;2.05;;;4.80;88.00;;;;;;5136794;27;20035;-74
2022/03/05 03:36:38;;;;;;;3.50;1.75;;;4.80;88.30;;;;;;5136641;27;20023;-75
2022/03/05 03:39:04;;;;;;;4.05;1.80;;;4.80;88.10;;;;;;5137781;27;20445;-75
2022/03/05 03:41:29;;;;;;;4.70;1.92;;;4.80;89.50;;;;;;5138458;27;20031;-74
2022/03/05 03:43:55;;;;;;;3.97;2.22;;;4.80;88.30;;;;;;5137023;27;20087;-74
2022/03/05 03:46:21;;;;;;;5.15;2.00;;;4.70;89.50;;;;;;5136879;27;20031;-75
2022/03/05 03:48:46;;;;;;;4.28;2.22;;;4.70;88.60;;;;;;5118375;27;20615;-74
2022/03/05 03:51:12;;;;;;;3.55;2.00;;;4.70;89.00;;;;;;5137037;27;20054;-74
2022/03/05 03:53:37;;;;;;;2.95;1.77;;;4.60;88.70;;;;;;5118366;27;20031;-74
2022/03/05 03:56:04;;;;;;;3.42;1.70;;;4.60;88.80;;;;;;5118458;27;20027;-74
2022/03/05 03:58:29;;;;;;;3.13;1.65;;;4.60;88.40;;;;;;5118502;27;20030;-74
2022/03/05 04:00:55;;;;;;;3.10;1.60;;;4.50;88.40;;;;;;5136763;27;20043;-74
2022/03/05 04:03:21;;;;;;;3.22;1.65;;;4.50;88.60;;;;;;5134352;27;20094;-74
2022/03/05 04:05:46;;;;;;;3.45;1.73;;;4.50;88.60;;;;;;5135323;27;20027;-74
2022/03/05 04:10:56;;;;;;;4.03;1.80;;;4.50;88.80;;;;;;5133199;27;20418;-74
2022/03/05 04:13:21;;;;;;;3.25;1.48;;;4.50;89.30;;;;;;5133346;27;20027;-74
2022/03/05 04:15:47;;;;;;;3.38;1.85;;;4.50;88.90;;;;;;5133666;27;20034;-75
2022/03/05 04:18:13;;;;;;;5.15;1.67;;;4.60;89.30;;;;;;5133408;27;20027;-74
2022/03/05 04:20:38;;;;;;;4.88;1.55;;;4.60;89.50;;;;;;5135082;27;20034;-75
2022/03/05 04:23:04;;;;;;;2.65;1.50;;;4.60;88.90;;;;;;5133429;27;20043;-74
2022/03/05 04:25:30;;;;;;;2.45;1.33;;;4.60;88.30;;;;;;5133194;27;20482;-74
2022/03/05 04:27:55;;;;;;;3.90;1.33;;;4.60;88.50;;;;;;5133064;27;20475;-74
2022/03/05 04:30:21;;;;;;;2.55;1.08;;;4.60;88.50;;;;;;5113617;27;20500;-74
2022/03/05 04:32:47;;;;;;;3.40;1.25;;;4.60;88.50;;;;;;5134936;27;20120;-74
2022/03/05 04:35:13;;;;;;;2.10;1.00;;;4.60;88.50;;;;;;5132513;27;20039;-74
2022/03/05 04:37:38;;;;;;;3.00;1.50;;;4.60;88.30;;;;;;5132927;27;20023;-75
2022/03/05 04:40:05;;;;;;;3.70;1.73;;;4.60;88.50;;;;;;5133071;27;20062;-75
2022/03/05 04:42:31;;;;;;;1.63;1.15;;;4.60;89.50;;;;;;5132980;27;20023;-74
2022/03/05 04:44:56;;;;;;;2.88;1.17;;;4.60;88.10;;;;;;5134380;27;20104;-74
2022/03/05 04:47:22;;;;;;;3.22;1.40;;;4.60;88.10;;;;;;5131610;27;20035;-74
2022/03/05 04:49:48;;;;;;;3.45;1.23;;;4.60;88.00;;;;;;5132727;27;20092;-75
2022/03/05 04:52:14;;;;;;;3.40;1.77;;;4.60;88.00;;;;;;5132538;27;20035;-74
2022/03/05 04:54:40;;;;;;;2.13;1.17;;;4.70;88.20;;;;;;5132567;27;20102;-75
2022/03/05 04:57:06;;;;;;;2.92;1.38;;;4.80;88.30;;;;;;5133671;27;20031;-74
2022/03/05 04:59:31;;;;;;;4.10;1.40;;;4.90;88.20;;;;;;5133783;27;20641;-74
2022/03/05 05:01:57;;;;;;;3.35;1.35;;;4.90;88.30;;;;;;5131491;27;20109;-75
2022/03/05 05:04:23;;;;;;;1.63;1.13;;;5.10;87.90;;;;;;5131988;27;20103;-75
2022/03/05 05:06:48;;;;;;;2.55;1.20;;;5.10;87.50;;;;;;5132008;27;20559;-75
2022/03/05 05:09:14;;;;;;;4.30;1.38;;;5.10;87.40;;;;;;5132077;27;20035;-74
2022/03/05 05:11:41;;;;;;;2.33;1.50;;;5.20;87.50;;;;;;5132906;27;20027;-74
2022/03/05 05:14:07;;;;;;;3.13;1.40;;;5.20;87.20;;;;;;5113095;27;20400;-75
2022/03/05 05:16:33;;;;;;;3.33;1.30;;;5.20;87.10;;;;;;5130776;27;20399;-74
2022/03/05 05:21:43;;;;;;;4.05;1.50;;;5.20;87.30;;;;;;5132001;27;20091;-74
2022/03/05 05:24:08;;;;;;;2.45;1.27;;;5.30;87.40;;;;;;5132837;27;20027;-74
2022/03/05 05:26:34;;;;;;;2.72;1.70;;;5.30;87.20;;;;;;5132232;27;20131;-74
2022/03/05 05:29:00;;;;;;;2.20;1.23;;;5.30;87.10;;;;;;5131774;27;20431;-74
2022/03/05 05:31:25;;;;;;;2.25;1.35;;;5.30;87.10;;;;;;5131199;27;20027;-74
2022/03/05 05:33:51;;;;;;;2.78;1.40;;;5.30;88.00;;;;;;5112955;27;20027;-74
2022/03/05 05:36:17;;;;;;;1.90;1.25;;;5.30;87.40;;;;;;5131884;27;20438;-74
2022/03/05 05:38:43;;;;;;;1.73;1.10;;;5.30;87.40;;;;;;5134268;27;20539;-74
2022/03/05 05:41:09;;;;;;;2.83;1.25;;;5.30;87.50;;;;;;5131591;27;20062;-74
2022/03/05 05:43:35;;;;;;;3.50;1.25;;;5.40;87.70;;;;;;5131476;27;20087;-75
2022/03/05 05:46:00;;;;;;;4.00;1.10;;;5.40;87.90;;;;;;5131188;27;20068;-74
2022/03/05 05:48:26;;;;;;;2.55;1.10;;;5.40;87.60;;;;;;5130170;27;20083;-74
2022/03/05 05:50:52;;;;;;;1.77;1.10;;;5.40;87.80;;;;;;5114308;27;20015;-74
2022/03/05 05:53:17;;;;;;;3.33;1.30;;;5.50;87.80;;;;;;5131585;27;20084;-74
2022/03/05 05:55:43;;;;;;;1.75;0.98;;;5.50;87.70;;;;;;5131684;27;20027;-74
2022/03/05 05:58:08;;;;;;;2.60;1.10;;;5.50;87.50;;;;;;5113155;27;20062;-74
2022/03/05 06:00:34;;;;;;;3.45;1.10;;;5.50;87.40;;;;;;5130888;27;20057;-74
2022/03/05 06:03:00;;;;;;;3.25;1.20;;;5.50;87.70;;;;;;5132526;27;20495;-74
2022/03/05 06:05:25;;;;;;;2.92;1.50;;;5.50;87.80;;;;;;5130623;27;20027;-74
2022/03/05 06:07:51;;;;;;;1.77;1.02;;;5.50;88.00;;;;;;5131133;27;20030;-74
2022/03/05 06:10:16;;;;;;;1.90;1.20;;;5.50;87.80;;;;;;5131095;27;20042;-74
2022/03/05 06:12:44;;;;;;;2.22;1.25;;;5.50;87.90;;;;;;5130877;27;20472;-74
2022/03/05 06:15:10;;;;;;;2.00;1.00;;;5.50;88.00;;;;;;5130586;27;20141;-74
2022/03/05 06:17:36;;;;;;;3.63;1.30;;;5.50;88.20;;;;;;5133181;27;20055;-74
2022/03/05 06:20:02;;;;;;;4.82;1.40;;;5.50;88.50;;;;;;5130523;27;20151;-74
2022/03/05 06:22:28;;;;;;;4.03;1.58;;;5.50;88.60;;;;;;5130908;27;20022;-74
2022/03/05 06:24:53;;;;;;;3.03;1.60;;;5.50;88.70;;;;;;5130922;27;20046;-74
2022/03/05 06:27:19;;;;;;;2.17;1.40;;;5.50;88.80;;;;;;5111694;28;20023;-74
2022/03/05 06:29:45;;;;;;;1.98;1.17;;;5.50;89.80;;;;;;5131925;27;20019;-74
2022/03/05 06:32:10;;;;;;;2.92;1.40;;;5.60;88.60;;;;;;5131042;27;20027;-74
2022/03/05 06:34:36;;;;;;;2.53;1.30;;;5.60;88.80;;;;;;5130668;27;20499;-74
2022/03/05 06:37:02;;;;;;;1.83;1.25;;;5.60;88.80;;;;;;5130665;27;20023;-74
2022/03/05 06:39:28;;;;;;;3.45;1.55;;;5.60;88.50;;;;;;5130798;27;20134;-74
2022/03/05 06:41:54;;;;;;;3.28;1.83;;;5.60;88.80;;;;;;5114706;27;20110;-74
2022/03/05 06:44:20;;;;;;;2.67;1.55;;;5.70;89.00;;;;;;5130598;27;20070;-74
2022/03/05 06:46:45;;;;;;;5.30;1.60;;;5.70;89.00;;;;;;5112177;27;20100;-74
2022/03/05 06:49:11;;;;;;;3.33;1.20;;;5.70;88.80;;;;;;5130268;27;20034;-74
2022/03/05 06:51:37;;;;;;;4.97;2.15;;;5.70;89.00;;;;;;5130254;27;20043;-74
2022/03/05 06:54:02;;;;;;;4.22;1.55;;;5.70;89.10;;;;;;5131648;28;20558;-74
2022/03/05 06:56:28;;;;;;;3.15;1.50;;;5.70;89.30;;;;;;5113578;28;20019;-74
2022/03/05 06:58:53;;;;;;;3.08;1.40;;;5.80;89.40;;;;;;5129894;27;20031;-74
2022/03/05 07:01:19;;;;;;;2.22;1.30;;;5.80;89.20;;;;;;5129343;27;20031;-74
2022/03/05 07:03:45;;;;;;;3.05;1.48;;;5.80;89.30;;;;;;5130249;27;20031;-74
2022/03/05 07:06:10;;;;;;;2.35;1.50;;;5.80;89.30;;;;;;5130784;27;20123;-74
2022/03/05 07:08:37;;;;;;;3.25;1.60;;;5.90;89.20;;;;;;5131768;28;20028;-74
2022/03/05 07:11:04;;;;;;;3.60;1.75;;;5.90;89.40;;;;;;5129895;27;20030;-73
2022/03/05 07:13:29;;;;;;;2.33;1.70;;;6.00;89.80;;;;;;5129582;27;20034;-74
2022/03/05 07:15:55;;;;;;;2.67;1.60;;;6.00;89.60;;;;;;5129798;27;20391;-74
2022/03/05 07:18:21;;;;;;;2.83;1.60;;;6.10;89.60;;;;;;5130552;27;20087;-74
2022/03/05 07:20:47;;;;;;;3.63;1.70;;;6.10;89.80;;;;;;5131806;27;20404;-74
2022/03/05 07:23:12;;;;;;;2.20;1.48;;;6.20;89.20;;;;;;5130318;27;20027;-75
2022/03/05 07:25:39;;;;;;;2.80;1.27;;;6.30;89.30;;;;;;5127375;27;20023;-75
2022/03/05 07:28:06;;;;;;;3.13;1.40;;;6.40;89.20;;;;;;5129855;27;20015;-75
2022/03/05 07:30:32;;;;;;;2.65;1.40;;;6.40;89.30;;;;;;5130680;27;20024;-74
2022/03/05 07:32:58;;;;;;;3.17;1.55;;;6.50;89.10;;;;;;5131482;27;20494;-74
2022/03/05 07:35:23;;;;;;;4.53;1.48;;;6.50;88.80;;;;;;5131713;27;20518;-74
2022/03/05 07:37:49;;;;;;;2.80;1.50;;;6.50;88.70;;;;;;5130477;27;20008;-74
2022/03/05 07:40:15;;;;;;;3.65;1.45;;;6.60;88.40;;;;;;5134601;27;20039;-75
2022/03/05 07:42:40;;;;;;;2.70;1.17;;;6.60;88.40;;;;;;5130787;27;20045;-75
2022/03/05 07:45:06;;;;;;;2.78;1.05;;;6.70;88.40;;;;;;5116813;27;20082;-75
2022/03/05 07:47:32;;;;;;;2.25;1.13;;;6.70;88.20;;;;;;5133922;27;20495;-75
2022/03/05 07:49:58;;;;;;;2.95;1.23;;;6.80;88.10;;;;;;5134280;27;20026;-75
2022/03/05 07:52:23;;;;;;;4.03;1.27;;;6.80;87.90;;;;;;5125386;27;20023;-75
2022/03/05 07:54:49;;;;;;;2.22;1.20;;;6.70;87.80;;;;;;5134210;27;20027;-75
2022/03/05 07:57:14;;;;;;;2.10;1.10;;;6.80;87.70;;;;;;5133594;27;20111;-75
2022/03/05 07:59:40;;;;;;;2.45;1.23;;;6.90;87.60;;;;;;5126818;27;20031;-73
2022/03/05 08:02:07;;;;;;;4.15;1.70;;;6.90;87.80;;;;;;5112125;27;20012;-76
2022/03/05 08:04:32;;;;;;;2.30;1.48;;;6.90;87.60;;;;;;5133999;27;20027;-74
2022/03/05 08:06:58;;;;;;;2.97;1.50;;;6.90;87.60;;;;;;5132113;27;20019;-75
2022/03/05 08:09:24;;;;;;;4.57;2.05;;;6.90;87.60;;;;;;5134125;27;20023;-74
2022/03/05 08:11:50;;;;;;;3.92;1.73;;;7.00;87.90;;;;;;5134765;27;20067;-74
2022/03/05 08:14:15;;;;;;;2.58;1.75;;;7.10;87.90;;;;;;5133773;27;20027;-75
2022/03/05 08:16:41;;;;;;;3.95;1.73;;;7.10;87.70;;;;;;5133528;27;20027;-75
2022/03/05 08:19:06;;;;;;;3.95;2.10;;;7.20;87.90;;;;;;5131732;27;20058;-76
2022/03/05 08:21:33;;;;;;;1.90;1.42;;;7.30;87.90;;;;;;5128932;27;20038;-75
2022/03/05 08:23:58;;;;;;;3.38;1.63;;;7.40;87.80;;;;;;5147118;27;20109;-75
2022/03/05 08:26:24;;;;;;;4.68;1.70;;;7.50;87.40;;;;;;5114702;27;20114;-75
2022/03/05 08:28:50;;;;;;;2.70;1.52;;;7.50;87.30;;;;;;5137328;27;20406;-75
2022/03/05 08:31:16;;;;;;;3.58;1.50;;;7.60;87.30;;;;;;5145608;27;20129;-75
2022/03/05 08:33:42;;;;;;;5.53;1.80;;;7.70;87.40;;;;;;5137089;27;20102;-75
2022/03/05 08:36:08;;;;;;;4.22;1.73;;;7.70;87.00;;;;;;5100195;27;20023;-75
2022/03/05 08:38:34;;;;;;;5.32;1.88;;;7.70;86.80;;;;;;5132852;27;20031;-76
2022/03/05 08:41:02;;;;;;;4.57;1.83;;;7.70;86.90;;;;;;5131097;27;20035;-75
2022/03/05 08:43:27;;;;;;;5.80;2.30;;;7.80;86.80;;;;;;5114660;27;20031;-75
2022/03/05 08:45:53;;;;;;;4.18;2.13;;;7.90;86.80;;;;;;5111473;28;20254;-75
2022/03/05 08:48:19;;;;;;;5.15;1.95;;;8.00;86.60;;;;;;5112704;28;20092;-75
2022/03/05 08:50:45;;;;;;;4.63;1.98;;;8.00;86.70;;;;;;5114327;28;20068;-75
2022/03/05 08:53:11;;;;;;;3.58;1.90;;;8.10;86.60;;;;;;5112285;28;20027;-75
2022/03/05 08:55:37;;;;;;;4.95;2.20;;;8.10;86.50;;;;;;5110525;28;20027;-75
2022/03/05 08:58:03;;;;;;;5.32;2.30;;;8.20;86.70;;;;;;5110962;28;20408;-75
2022/03/05 09:00:28;;;;;;;5.25;2.10;;;8.40;86.70;;;;;;5108054;28;20046;-75
2022/03/05 09:02:54;;;;;;;5.68;2.47;;;8.40;86.50;;;;;;5114453;28;20391;-75
2022/03/05 09:05:20;;;;;;;8.55;3.28;;;8.40;86.10;;;;;;5110925;28;20035;-75
2022/03/05 09:07:46;;;;;;;7.70;3.83;;;8.40;86.10;;;;;;5112243;28;20099;-75
2022/03/05 09:10:12;;;;;;;6.10;3.42;;;8.30;85.40;;;;;;5111550;28;20027;-74
2022/03/05 09:12:40;;;;;;;5.63;3.78;;;8.30;86.00;;;;;;5111970;28;20068;-75
2022/03/05 09:15:06;;;;;;;10.07;3.60;;;8.40;86.10;;;;;;5112812;28;20024;-75
2022/03/05 09:17:32;;;;;;;6.97;3.80;;;8.60;86.20;;;;;;5113517;28;20019;-75
2022/03/05 09:19:59;;;;;;;5.38;3.28;;;8.70;86.20;;;;;;5110519;28;20103;-75
2022/03/05 09:22:24;;;;;;;8.23;3.35;;;8.80;85.90;;;;;;5111817;28;20077;-75
2022/03/05 09:24:50;;;;;;;7.40;3.95;;;8.90;83.40;;;;;;5111157;28;20024;-75
2022/03/05 09:27:16;;;;;;;6.55;4.40;;;8.80;83.00;;;;;;5111080;28;20039;-75
2022/03/05 09:29:41;;;;;;;6.00;4.07;;;8.80;83.70;;;;;;5111387;28;20019;-75
2022/03/05 09:32:08;;;;;;;8.98;4.90;;;8.80;82.80;;;;;;5107223;28;20476;-75
2022/03/05 09:34:34;;;;;;;8.38;4.32;;;8.80;80.90;;;;;;5111777;28;20107;-75
2022/03/05 09:37:00;;;;;;;7.20;4.40;;;8.80;81.40;;;;;;5111813;28;20024;-75
2022/03/05 09:39:26;;;;;;;8.82;4.63;;;8.80;80.80;;;;;;5111419;28;20100;-75
2022/03/05 09:41:53;;;;;;;6.97;4.70;;;8.70;80.50;;;;;;5099837;28;20165;-75
2022/03/05 09:44:19;;;;;;;6.68;4.55;;;8.90;82.20;;;;;;5116520;27;20069;-75
2022/03/05 09:46:46;;;;;;;5.38;3.60;;;9.00;81.90;;;;;;5126674;27;20508;-74
2022/03/05 09:49:12;;;;;;;6.18;4.05;;;9.30;82.50;;;;;;5131730;27;20035;-75
2022/03/05 09:51:37;;;;;;;6.88;4.25;;;9.30;79.80;;;;;;5132142;27;20030;-75
2022/03/05 09:54:03;;;;;;;6.78;4.25;;;9.30;78.70;;;;;;5132441;27;20023;-75
2022/03/05 09:56:29;;;;;;;7.97;4.22;;;9.30;78.00;;;;;;5133112;27;20023;-75
2022/03/05 09:58:55;;;;;;;6.95;4.40;;;9.20;78.00;;;;;;5131366;27;20467;-75
2022/03/05 10:01:21;;;;;;;7.03;3.85;;;9.30;78.40;;;;;;5112488;27;20039;-74
2022/03/05 10:03:49;;;;;;;8.05;4.10;;;9.30;77.60;;;;;;5131737;27;20025;-74
2022/03/05 10:06:16;;;;;;;7.28;3.58;;;9.20;77.30;;;;;;5131576;27;20061;-74
2022/03/05 10:08:43;;;;;;;10.32;4.43;;;9.30;78.20;;;;;;5132815;27;20033;-74
2022/03/05 10:11:11;;;;;;;5.60;3.90;;;9.30;76.20;;;;;;5130711;27;20034;-75
2022/03/05 10:13:39;;;;;;;4.88;3.65;;;9.40;77.30;;;;;;5131196;27;20026;-75
2022/03/05 10:16:07;;;;;;;6.80;3.00;;;9.50;77.20;;;;;;5124563;27;20023;-74
2022/03/05 10:18:37;;;;;;;5.25;2.80;;;9.50;75.60;;;;;;5129872;27;20046;-74
2022/03/05 10:21:09;;;;;;;3.83;3.03;;;9.50;75.80;;;;;;5132243;27;20027;-75
2022/03/05 10:23:42;;;;;;;8.45;3.00;;;9.50;75.10;;;;;;5130783;27;20027;-75
2022/03/05 10:26:09;;;;;;;5.22;2.95;;;9.60;75.40;;;;;;5131154;27;20487;-75
2022/03/05 10:28:35;;;;;;;5.03;3.15;;;9.50;73.70;;;;;;5112713;27;20027;-75
2022/03/05 10:31:07;;;;;;;4.75;3.05;;;9.60;75.30;;;;;;5131257;27;20019;-75
2022/03/05 10:33:38;;;;;;;4.45;3.00;;;9.70;74.70;;;;;;5131120;27;20494;-75
2022/03/05 10:36:09;;;;;;;5.60;2.85;;;9.80;74.00;;;;;;5131842;27;20391;-75
2022/03/05 10:38:48;;;;;;;8.63;3.60;;;9.80;73.20;;;;;;5130738;27;20039;-74
2022/03/05 10:41:19;;;;;;;5.63;3.70;;;9.70;72.20;;;;;;5130885;27;20055;-75
2022/03/05 10:44:06;;;;;;;6.32;3.00;;;9.50;72.30;;;;;;5130767;27;20023;-74
2022/03/05 10:46:46;;;;;;;5.05;3.05;;;9.40;71.30;;;;;;5130958;27;20160;-74
2022/03/05 10:49:23;;;;;;;3.53;2.88;;;9.40;70.80;;;;;;5130848;27;20027;-74
2022/03/05 10:52:03;;;;;;;5.18;3.10;;;9.40;70.50;;;;;;5130627;27;20022;-74
2022/03/05 10:54:39;;;;;;;6.00;3.53;;;9.40;71.50;;;;;;5115410;28;20503;-74
2022/03/05 10:57:13;;;;;;;4.18;3.10;;;9.40;71.10;;;;;;5131448;27;20448;-73
2022/03/05 10:59:44;;;;;;;5.03;3.17;;;9.50;72.30;;;;;;5131197;28;20491;-73
2022/03/05 11:02:14;;;;;;;3.97;2.83;;;9.60;72.20;;;;;;5129021;28;20031;-73
2022/03/05 11:04:42;;;;;;;4.32;2.60;;;9.70;71.50;;;;;;5130699;27;20027;-74
2022/03/05 11:07:09;;;;;;;4.75;2.97;;;9.60;70.70;;;;;;5112059;28;20438;-74
2022/03/05 11:09:36;;;;;;;6.32;3.08;;;9.80;70.40;;;;;;5130919;27;20049;-74
2022/03/05 11:12:03;;;;;;;5.28;3.10;;;9.80;70.10;;;;;;5113512;27;20453;-74
2022/03/05 11:14:28;;;;;;;4.72;3.10;;;9.80;69.90;;;;;;5135793;27;20019;-74
2022/03/05 11:16:56;;;;;;;4.25;2.53;;;9.90;69.20;;;;;;5133434;27;20080;-74
2022/03/05 11:19:23;;;;;;;4.95;3.00;;;9.80;68.90;;;;;;5134500;27;20046;-74
2022/03/05 11:21:49;;;;;;;5.35;2.72;;;9.70;68.70;;;;;;5116183;27;20407;-74
2022/03/05 11:24:18;;;;;;;4.35;2.83;;;9.60;69.80;;;;;;5135357;27;20032;-74
2022/03/05 11:26:50;;;;;;;4.43;2.50;;;9.70;69.50;;;;;;5135748;27;20019;-74
2022/03/05 11:29:19;;;;;;;3.83;2.13;;;9.80;68.40;;;;;;5134740;27;20027;-73
2022/03/05 11:31:46;;;;;;;4.93;2.70;;;9.70;67.30;;;;;;5134535;27;20035;-74
2022/03/05 11:34:17;;;;;;;3.45;2.20;;;9.70;67.20;;;;;;5134256;27;20504;-74
2022/03/05 11:36:44;;;;;;;3.58;2.30;;;9.70;66.30;;;;;;5133473;27;20019;-73
2022/03/05 11:39:31;;;;;;;3.22;2.10;;;9.70;66.40;;;;;;5135391;27;20015;-74
2022/03/05 11:41:57;;;;;;;3.85;2.50;;;9.80;65.70;;;;;;5136175;27;20023;-73
2022/03/05 11:44:37;;;;;;;3.38;1.98;;;9.70;65.40;;;;;;5134932;27;20518;-74
2022/03/05 11:47:26;;;;;;;4.35;2.03;;;9.70;66.50;;;;;;5134283;27;20110;-74
2022/03/05 11:49:58;;;;;;;2.92;1.92;;;9.80;67.30;;;;;;5133944;27;20031;-73
2022/03/05 11:52:56;;;;;;;4.63;2.40;;;9.90;67.10;;;;;;5134257;27;20030;-74
2022/03/05 11:55:25;;;;;;;3.88;2.22;;;10.00;66.90;;;;;;5032430;28;20039;-73
2022/03/05 11:57:50;;;;;;;3.13;2.30;;;9.90;65.50;;;;;;5052418;28;20525;-74
2022/03/05 12:00:20;;;;;;;5.38;2.40;;;10.00;66.80;;;;;;5019433;28;20057;-75
2022/03/05 12:02:47;;;;;;;3.28;1.88;;;10.10;67.50;;;;;;5037995;28;20498;-74
2022/03/05 12:05:38;;;;;;;4.97;2.50;;;10.30;66.90;;;;;;5040535;28;20116;-73
2022/03/05 12:08:11;;;;;;;4.75;2.30;;;10.40;67.20;;;;;;5040835;28;20032;-73
2022/03/05 12:10:39;;;;;;;3.30;2.10;;;10.20;67.00;;;;;;5021824;28;20037;-73
2022/03/05 12:13:10;;;;;;;3.80;2.40;;;10.10;67.40;;;;;;5040429;28;20044;-73
2022/03/05 12:15:40;;;;;;;3.45;2.05;;;10.10;67.40;;;;;;5037771;28;20120;-73
2022/03/05 12:18:09;;;;;;;3.58;2.20;;;9.90;67.90;;;;;;5018921;28;20033;-73
2022/03/05 12:20:38;;;;;;;3.60;2.25;;;9.90;68.80;;;;;;5038843;28;20038;-74
2022/03/05 12:23:15;;;;;;;5.07;2.90;;;9.80;68.70;;;;;;5040482;28;20473;-75
2022/03/05 12:25:44;;;;;;;3.53;2.30;;;9.60;69.20;;;;;;5046070;28;20102;-73
2022/03/05 12:28:12;;;;;;;5.00;2.20;;;9.50;69.10;;;;;;5060956;28;20071;-73
2022/03/05 12:30:39;;;;;;;4.35;2.40;;;9.40;69.40;;;;;;5064548;28;20032;-73
2022/03/05 12:33:08;;;;;;;2.95;2.22;;;9.50;70.00;;;;;;5134039;27;20035;-73
2022/03/05 12:35:34;;;;;;;3.08;2.13;;;9.80;70.20;;;;;;5147613;27;20030;-74
2022/03/05 12:38:01;;;;;;;4.85;2.33;;;10.00;69.60;;;;;;5135019;27;20016;-74
2022/03/05 12:40:28;;;;;;;4.82;2.58;;;10.10;68.50;;;;;;5128580;27;20066;-74
2022/03/05 12:42:55;;;;;;;3.70;2.13;;;9.90;67.70;;;;;;5143955;27;20079;-73
2022/03/05 12:45:25;;;;;;;2.78;1.90;;;9.90;67.80;;;;;;5140154;27;20043;-74
2022/03/05 12:47:56;;;;;;;5.03;2.65;;;10.00;67.50;;;;;;5149938;27;20018;-74
2022/03/05 12:50:27;;;;;;;3.20;2.10;;;10.10;68.00;;;;;;5116655;27;20501;-74
2022/03/05 12:52:57;;;;;;;4.70;2.60;;;10.30;67.30;;;;;;5143869;27;20023;-74
2022/03/05 12:55:27;;;;;;;2.63;2.30;;;10.40;68.00;;;;;;5139673;27;20042;-74
2022/03/05 12:57:55;;;;;;;3.40;1.88;;;10.50;68.00;;;;;;5139193;27;20084;-74
2022/03/05 13:00:20;;;;;;;4.03;2.20;;;10.40;66.10;;;;;;5148930;27;20038;-74